sensor_id;sensor_type;location;lat;lon;timestamp;temperature;humidity
22633;DHT22;11483;55.828;37.488;2023-04-01T00:00:58;3.70;99.90
22633;DHT22;11483;55.828;37.488;2023-04-01T00:03:25;3.70;99.90
22633;DHT22;11483;55.828;37.488;2023-04-01T00:05:53;3.60;99.90
22633;DHT22;11483;55.828;37.488;2023-04-01T00:08:19;3.60;99.90
22633;DHT22;11483;55.828;37.488;2023-04-01T00:10:45;3.60;99.90
22633;DHT22;11483;55.828;37.488;2023-04-01T00:13:11;3.60;99.90
22633;DHT22;11483;55.828;37.488;2023-04-01T00:15:37;3.50;99.90
22633;DHT22;11483;55.828;37.488;2023-04-01T00:18:04;3.50;99.90
22633;DHT22;11483;55.828;37.488;2023-04-01T00:20:30;3.40;99.90
22633;DHT22;11483;55.828;37.488;2023-04-01T00:22:56;3.40;99.90
22633;DHT22;11483;55.828;37.488;2023-04-01T00:25:23;3.40;99.90
22633;DHT22;11483;55.828;37.488;2023-04-01T00:27:49;3.40;99.90
22633;DHT22;11483;55.828;37.488;2023-04-01T00:30:16;3.40;99.90
22633;DHT22;11483;55.828;37.488;2023-04-01T00:32:42;3.50;99.90
22633;DHT22;11483;55.828;37.488;2023-04-01T00:35:08;3.50;99.90
22633;DHT22;11483;55.828;37.488;2023-04-01T00:37:38;3.40;99.90
22633;DHT22;11483;55.828;37.488;2023-04-01T00:40:07;3.40;99.90
22633;DHT22;11483;55.828;37.488;2023-04-01T00:42:33;3.40;99.90
22633;DHT22;11483;55.828;37.488;2023-04-01T00:45:23;3.40;99.90
22633;DHT22;11483;55.828;37.488;2023-04-01T00:47:50;3.40;99.90
22633;DHT22;11483;55.828;37.488;2023-04-01T00:50:16;3.40;99.90
22633;DHT22;11483;55.828;37.488;2023-04-01T00:52:42;3.50;99.90
22633;DHT22;11483;55.828;37.488;2023-04-01T00:55:11;3.50;99.90
22633;DHT22;11483;55.828;37.488;2023-04-01T00:57:40;3.50;99.90
22633;DHT22;11483;55.828;37.488;2023-04-01T01:00:10;3.50;99.90
22633;DHT22;11483;55.828;37.488;2023-04-01T01:02:36;3.50;99.90
22633;DHT22;11483;55.828;37.488;2023-04-01T01:05:03;3.50;99.90
22633;DHT22;11483;55.828;37.488;2023-04-01T01:10:20;3.50;99.90
22633;DHT22;11483;55.828;37.488;2023-04-01T01:13:11;3.50;99.90
22633;DHT22;11483;55.828;37.488;2023-04-01T01:18:24;3.50;99.90
22633;DHT22;11483;55.828;37.488;2023-04-01T01:21:21;3.50;99.90
22633;DHT22;11483;55.828;37.488;2023-04-01T01:32:51;3.50;99.90
22633;DHT22;11483;55.828;37.488;2023-04-01T01:37:47;3.50;99.90
22633;DHT22;11483;55.828;37.488;2023-04-01T01:40:15;3.50;99.90
22633;DHT22;11483;55.828;37.488;2023-04-01T01:42:47;3.50;99.90
22633;DHT22;11483;55.828;37.488;2023-04-01T01:45:16;3.50;99.90
22633;DHT22;11483;55.828;37.488;2023-04-01T01:47:43;3.50;99.90
22633;DHT22;11483;55.828;37.488;2023-04-01T01:50:12;3.50;99.90
22633;DHT22;11483;55.828;37.488;2023-04-01T01:52:39;3.50;99.90
22633;DHT22;11483;55.828;37.488;2023-04-01T01:55:33;3.50;99.90
22633;DHT22;11483;55.828;37.488;2023-04-01T01:58:02;3.50;99.90
22633;DHT22;11483;55.828;37.488;2023-04-01T02:00:30;3.50;99.90
22633;DHT22;11483;55.828;37.488;2023-04-01T02:02:57;3.50;99.90
22633;DHT22;11483;55.828;37.488;2023-04-01T02:05:26;3.50;99.90
22633;DHT22;11483;55.828;37.488;2023-04-01T02:08:00;3.40;99.90
22633;DHT22;11483;55.828;37.488;2023-04-01T02:10:28;3.40;99.90
22633;DHT22;11483;55.828;37.488;2023-04-01T02:12:59;3.40;99.90
22633;DHT22;11483;55.828;37.488;2023-04-01T02:15:28;3.30;99.90
22633;DHT22;11483;55.828;37.488;2023-04-01T02:17:56;3.30;99.90
22633;DHT22;11483;55.828;37.488;2023-04-01T02:20:24;3.30;99.90
22633;DHT22;11483;55.828;37.488;2023-04-01T02:22:53;3.20;99.90
22633;DHT22;11483;55.828;37.488;2023-04-01T02:25:33;3.20;99.90
22633;DHT22;11483;55.828;37.488;2023-04-01T02:28:00;3.10;99.90
22633;DHT22;11483;55.828;37.488;2023-04-01T02:30:29;3.10;99.90
22633;DHT22;11483;55.828;37.488;2023-04-01T02:32:58;3.10;99.90
22633;DHT22;11483;55.828;37.488;2023-04-01T02:35:25;3.10;99.90
22633;DHT22;11483;55.828;37.488;2023-04-01T02:37:53;3.10;99.90
22633;DHT22;11483;55.828;37.488;2023-04-01T02:40:20;3.10;99.90
22633;DHT22;11483;55.828;37.488;2023-04-01T02:42:46;3.00;99.90
22633;DHT22;11483;55.828;37.488;2023-04-01T02:45:12;3.00;99.90
22633;DHT22;11483;55.828;37.488;2023-04-01T02:47:38;3.00;99.90
22633;DHT22;11483;55.828;37.488;2023-04-01T02:50:05;3.10;99.90
22633;DHT22;11483;55.828;37.488;2023-04-01T02:52:31;3.10;99.90
22633;DHT22;11483;55.828;37.488;2023-04-01T02:54:57;3.10;99.90
22633;DHT22;11483;55.828;37.488;2023-04-01T02:57:24;3.10;99.90
22633;DHT22;11483;55.828;37.488;2023-04-01T02:59:50;3.10;99.90
22633;DHT22;11483;55.828;37.488;2023-04-01T03:02:16;3.10;99.90
22633;DHT22;11483;55.828;37.488;2023-04-01T03:04:42;3.10;99.90
22633;DHT22;11483;55.828;37.488;2023-04-01T03:07:08;3.10;99.90
22633;DHT22;11483;55.828;37.488;2023-04-01T03:09:36;3.10;99.90
22633;DHT22;11483;55.828;37.488;2023-04-01T03:12:03;3.10;99.90
22633;DHT22;11483;55.828;37.488;2023-04-01T03:14:28;3.20;99.90
22633;DHT22;11483;55.828;37.488;2023-04-01T03:16:54;3.30;99.90
22633;DHT22;11483;55.828;37.488;2023-04-01T03:19:20;3.30;99.90
22633;DHT22;11483;55.828;37.488;2023-04-01T03:21:46;3.30;99.90
22633;DHT22;11483;55.828;37.488;2023-04-01T03:24:12;3.40;99.90
22633;DHT22;11483;55.828;37.488;2023-04-01T03:26:38;3.40;99.90
22633;DHT22;11483;55.828;37.488;2023-04-01T03:29:04;3.50;99.90
22633;DHT22;11483;55.828;37.488;2023-04-01T03:31:30;3.50;99.90
22633;DHT22;11483;55.828;37.488;2023-04-01T03:33:56;3.40;99.90
22633;DHT22;11483;55.828;37.488;2023-04-01T03:36:22;3.40;99.90
22633;DHT22;11483;55.828;37.488;2023-04-01T03:38:48;3.40;99.90
22633;DHT22;11483;55.828;37.488;2023-04-01T03:41:15;3.30;99.90
22633;DHT22;11483;55.828;37.488;2023-04-01T03:43:42;3.40;99.90
22633;DHT22;11483;55.828;37.488;2023-04-01T03:46:08;3.40;99.90
22633;DHT22;11483;55.828;37.488;2023-04-01T03:48:34;3.40;99.90
22633;DHT22;11483;55.828;37.488;2023-04-01T03:51:00;3.40;99.90
22633;DHT22;11483;55.828;37.488;2023-04-01T03:53:25;3.40;99.90
22633;DHT22;11483;55.828;37.488;2023-04-01T03:55:53;3.40;99.90
22633;DHT22;11483;55.828;37.488;2023-04-01T03:58:19;3.40;99.90
22633;DHT22;11483;55.828;37.488;2023-04-01T04:00:45;3.40;99.90
22633;DHT22;11483;55.828;37.488;2023-04-01T04:03:11;3.40;99.90
22633;DHT22;11483;55.828;37.488;2023-04-01T04:05:37;3.40;99.90
22633;DHT22;11483;55.828;37.488;2023-04-01T04:08:03;3.40;99.90
22633;DHT22;11483;55.828;37.488;2023-04-01T04:10:29;3.40;99.90
22633;DHT22;11483;55.828;37.488;2023-04-01T04:12:55;3.30;99.90
22633;DHT22;11483;55.828;37.488;2023-04-01T04:15:22;3.30;99.90
22633;DHT22;11483;55.828;37.488;2023-04-01T04:17:48;3.30;99.90
22633;DHT22;11483;55.828;37.488;2023-04-01T04:20:14;3.30;99.90
22633;DHT22;11483;55.828;37.488;2023-04-01T04:22:40;3.30;99.90
22633;DHT22;11483;55.828;37.488;2023-04-01T04:25:07;3.30;99.90
22633;DHT22;11483;55.828;37.488;2023-04-01T04:27:33;3.30;99.90
22633;DHT22;11483;55.828;37.488;2023-04-01T04:29:59;3.40;99.90
22633;DHT22;11483;55.828;37.488;2023-04-01T04:32:25;3.40;99.90
22633;DHT22;11483;55.828;37.488;2023-04-01T04:34:50;3.50;99.90
22633;DHT22;11483;55.828;37.488;2023-04-01T04:37:16;3.50;99.90
22633;DHT22;11483;55.828;37.488;2023-04-01T04:39:42;3.50;99.90
22633;DHT22;11483;55.828;37.488;2023-04-01T04:42:08;3.60;99.90
22633;DHT22;11483;55.828;37.488;2023-04-01T04:44:34;3.60;99.90
22633;DHT22;11483;55.828;37.488;2023-04-01T04:47:00;3.70;99.90
22633;DHT22;11483;55.828;37.488;2023-04-01T04:49:26;3.70;99.90
22633;DHT22;11483;55.828;37.488;2023-04-01T04:51:52;3.80;99.90
22633;DHT22;11483;55.828;37.488;2023-04-01T04:54:18;3.80;99.90
22633;DHT22;11483;55.828;37.488;2023-04-01T04:56:43;3.90;99.90
22633;DHT22;11483;55.828;37.488;2023-04-01T04:59:09;4.00;99.90
22633;DHT22;11483;55.828;37.488;2023-04-01T05:01:35;4.00;99.90
22633;DHT22;11483;55.828;37.488;2023-04-01T05:04:01;4.10;99.90
22633;DHT22;11483;55.828;37.488;2023-04-01T05:06:27;4.10;99.90
22633;DHT22;11483;55.828;37.488;2023-04-01T05:08:55;4.20;99.90
22633;DHT22;11483;55.828;37.488;2023-04-01T05:11:22;4.30;99.90
22633;DHT22;11483;55.828;37.488;2023-04-01T05:13:48;4.30;99.90
22633;DHT22;11483;55.828;37.488;2023-04-01T05:16:16;4.40;99.90
22633;DHT22;11483;55.828;37.488;2023-04-01T05:18:42;4.40;99.90
22633;DHT22;11483;55.828;37.488;2023-04-01T05:21:10;4.50;99.90
22633;DHT22;11483;55.828;37.488;2023-04-01T05:23:37;4.50;99.90
22633;DHT22;11483;55.828;37.488;2023-04-01T05:26:08;4.60;99.90
22633;DHT22;11483;55.828;37.488;2023-04-01T05:28:34;4.70;99.90
22633;DHT22;11483;55.828;37.488;2023-04-01T05:31:04;4.70;99.90
22633;DHT22;11483;55.828;37.488;2023-04-01T05:33:31;4.80;99.90
22633;DHT22;11483;55.828;37.488;2023-04-01T05:36:14;4.90;99.90
22633;DHT22;11483;55.828;37.488;2023-04-01T05:38:41;5.00;99.90
22633;DHT22;11483;55.828;37.488;2023-04-01T05:41:08;5.00;99.90
22633;DHT22;11483;55.828;37.488;2023-04-01T05:43:38;5.10;99.90
22633;DHT22;11483;55.828;37.488;2023-04-01T05:46:04;5.20;99.90
22633;DHT22;11483;55.828;37.488;2023-04-01T05:48:30;5.30;99.90
22633;DHT22;11483;55.828;37.488;2023-04-01T05:50:56;5.40;99.90
22633;DHT22;11483;55.828;37.488;2023-04-01T05:53:21;5.40;99.90
22633;DHT22;11483;55.828;37.488;2023-04-01T05:55:47;5.40;99.90
22633;DHT22;11483;55.828;37.488;2023-04-01T05:58:13;5.40;99.90
22633;DHT22;11483;55.828;37.488;2023-04-01T06:00:39;5.40;99.90
22633;DHT22;11483;55.828;37.488;2023-04-01T06:03:05;5.50;99.90
22633;DHT22;11483;55.828;37.488;2023-04-01T06:05:38;5.60;99.90
22633;DHT22;11483;55.828;37.488;2023-04-01T06:08:16;5.70;99.90
22633;DHT22;11483;55.828;37.488;2023-04-01T06:21:47;6.90;99.90
22633;DHT22;11483;55.828;37.488;2023-04-01T06:33:13;7.20;99.90
22633;DHT22;11483;55.828;37.488;2023-04-01T06:41:39;7.00;99.90
22633;DHT22;11483;55.828;37.488;2023-04-01T06:46:56;6.90;99.90
22633;DHT22;11483;55.828;37.488;2023-04-01T06:52:42;7.10;99.90
22633;DHT22;11483;55.828;37.488;2023-04-01T06:55:41;7.30;99.90
22633;DHT22;11483;55.828;37.488;2023-04-01T06:58:37;7.40;99.90
22633;DHT22;11483;55.828;37.488;2023-04-01T07:01:08;7.40;99.90
22633;DHT22;11483;55.828;37.488;2023-04-01T07:03:40;7.50;99.90
22633;DHT22;11483;55.828;37.488;2023-04-01T07:06:23;7.50;99.90
22633;DHT22;11483;55.828;37.488;2023-04-01T07:08:50;7.50;99.90
22633;DHT22;11483;55.828;37.488;2023-04-01T07:11:27;7.50;99.90
22633;DHT22;11483;55.828;37.488;2023-04-01T07:16:51;7.90;99.90
22633;DHT22;11483;55.828;37.488;2023-04-01T07:19:42;7.90;99.90
22633;DHT22;11483;55.828;37.488;2023-04-01T07:24:48;7.90;99.90
22633;DHT22;11483;55.828;37.488;2023-04-01T07:27:14;7.90;99.90
22633;DHT22;11483;55.828;37.488;2023-04-01T07:29:41;8.00;99.90
22633;DHT22;11483;55.828;37.488;2023-04-01T07:32:35;8.30;99.90
22633;DHT22;11483;55.828;37.488;2023-04-01T07:38:20;9.10;99.90
22633;DHT22;11483;55.828;37.488;2023-04-01T07:40:51;9.00;99.90
22633;DHT22;11483;55.828;37.488;2023-04-01T07:54:18;9.70;99.90
22633;DHT22;11483;55.828;37.488;2023-04-01T08:10:51;9.20;99.90
22633;DHT22;11483;55.828;37.488;2023-04-01T08:21:38;8.90;99.90
22633;DHT22;11483;55.828;37.488;2023-04-01T08:24:27;9.20;99.90
22633;DHT22;11483;55.828;37.488;2023-04-01T08:26:58;9.60;99.90
22633;DHT22;11483;55.828;37.488;2023-04-01T08:29:48;10.10;99.90
22633;DHT22;11483;55.828;37.488;2023-04-01T08:32:13;10.60;99.90
22633;DHT22;11483;55.828;37.488;2023-04-01T08:34:42;11.10;99.90
22633;DHT22;11483;55.828;37.488;2023-04-01T08:37:14;11.50;99.90
22633;DHT22;11483;55.828;37.488;2023-04-01T08:39:47;12.20;99.90
22633;DHT22;11483;55.828;37.488;2023-04-01T08:50:43;18.00;99.90
22633;DHT22;11483;55.828;37.488;2023-04-01T08:53:14;20.40;99.90
22633;DHT22;11483;55.828;37.488;2023-04-01T09:25:02;22.70;67.30
22633;DHT22;11483;55.828;37.488;2023-04-01T09:38:56;22.10;65.80
22633;DHT22;11483;55.828;37.488;2023-04-01T09:41:40;22.70;63.40
22633;DHT22;11483;55.828;37.488;2023-04-01T09:44:34;22.30;63.40
22633;DHT22;11483;55.828;37.488;2023-04-01T09:49:55;22.60;65.00
22633;DHT22;11483;55.828;37.488;2023-04-01T10:00:38;24.00;60.60
22633;DHT22;11483;55.828;37.488;2023-04-01T10:14:27;18.10;68.30
22633;DHT22;11483;55.828;37.488;2023-04-01T10:27:34;19.00;68.10
22633;DHT22;11483;55.828;37.488;2023-04-01T10:35:34;16.30;69.70
22633;DHT22;11483;55.828;37.488;2023-04-01T10:48:53;19.90;66.30
22633;DHT22;11483;55.828;37.488;2023-04-01T10:57:29;21.60;64.60
22633;DHT22;11483;55.828;37.488;2023-04-01T11:03:20;22.00;61.90
22633;DHT22;11483;55.828;37.488;2023-04-01T11:06:20;22.20;62.20
22633;DHT22;11483;55.828;37.488;2023-04-01T11:14:56;19.80;63.90
22633;DHT22;11483;55.828;37.488;2023-04-01T11:45:44;15.30;72.90
22633;DHT22;11483;55.828;37.488;2023-04-01T11:53:46;13.90;76.20
22633;DHT22;11483;55.828;37.488;2023-04-01T12:05:03;12.80;79.10
22633;DHT22;11483;55.828;37.488;2023-04-01T12:08:06;12.90;79.00
22633;DHT22;11483;55.828;37.488;2023-04-01T12:10:39;12.90;79.60
22633;DHT22;11483;55.828;37.488;2023-04-01T12:13:19;12.70;79.40
22633;DHT22;11483;55.828;37.488;2023-04-01T12:18:53;12.20;81.40
22633;DHT22;11483;55.828;37.488;2023-04-01T12:21:37;12.10;82.50
22633;DHT22;11483;55.828;37.488;2023-04-01T12:27:08;12.00;84.60
22633;DHT22;11483;55.828;37.488;2023-04-01T12:35:24;11.90;84.50
22633;DHT22;11483;55.828;37.488;2023-04-01T12:38:27;11.80;85.50
22633;DHT22;11483;55.828;37.488;2023-04-01T12:41:08;11.90;86.40
22633;DHT22;11483;55.828;37.488;2023-04-01T12:43:58;12.00;87.00
22633;DHT22;11483;55.828;37.488;2023-04-01T12:52:13;12.40;88.50
22633;DHT22;11483;55.828;37.488;2023-04-01T13:11:09;11.40;89.30
22633;DHT22;11483;55.828;37.488;2023-04-01T13:16:14;11.20;89.80
22633;DHT22;11483;55.828;37.488;2023-04-01T13:18:58;11.10;89.40
22633;DHT22;11483;55.828;37.488;2023-04-01T13:21:57;11.00;90.20
22633;DHT22;11483;55.828;37.488;2023-04-01T13:28:30;10.60;90.20
22633;DHT22;11483;55.828;37.488;2023-04-01T13:30:39;10.50;90.80
22633;DHT22;11483;55.828;37.488;2023-04-01T13:36:15;10.50;91.10
22633;DHT22;11483;55.828;37.488;2023-04-01T13:39:19;10.40;91.50
22633;DHT22;11483;55.828;37.488;2023-04-01T13:42:13;10.20;92.20
22633;DHT22;11483;55.828;37.488;2023-04-01T13:44:59;10.20;92.40
22633;DHT22;11483;55.828;37.488;2023-04-01T13:50:17;10.20;92.40
22633;DHT22;11483;55.828;37.488;2023-04-01T13:58:17;10.10;92.30
22633;DHT22;11483;55.828;37.488;2023-04-01T14:07:07;10.10;92.40
22633;DHT22;11483;55.828;37.488;2023-04-01T14:21:04;9.50;96.40
22633;DHT22;11483;55.828;37.488;2023-04-01T14:43:16;8.90;99.90
22633;DHT22;11483;55.828;37.488;2023-04-01T14:48:32;8.90;99.90
22633;DHT22;11483;55.828;37.488;2023-04-01T14:51:33;8.90;99.90
22633;DHT22;11483;55.828;37.488;2023-04-01T14:54:17;8.80;99.90
22633;DHT22;11483;55.828;37.488;2023-04-01T14:56:50;8.80;99.90
22633;DHT22;11483;55.828;37.488;2023-04-01T15:13:05;8.70;99.90
22633;DHT22;11483;55.828;37.488;2023-04-01T16:19:22;8.00;99.90
22633;DHT22;11483;55.828;37.488;2023-04-01T16:27:39;8.00;99.90
22633;DHT22;11483;55.828;37.488;2023-04-01T16:30:35;8.00;99.90
22633;DHT22;11483;55.828;37.488;2023-04-01T16:44:19;7.90;99.90
22633;DHT22;11483;55.828;37.488;2023-04-01T16:47:32;7.90;99.90
22633;DHT22;11483;55.828;37.488;2023-04-01T16:49:44;7.90;99.90
22633;DHT22;11483;55.828;37.488;2023-04-01T16:52:13;7.90;99.90
22633;DHT22;11483;55.828;37.488;2023-04-01T16:57:19;7.90;99.90
22633;DHT22;11483;55.828;37.488;2023-04-01T17:03:08;7.80;99.90
22633;DHT22;11483;55.828;37.488;2023-04-01T17:05:13;7.80;99.90
22633;DHT22;11483;55.828;37.488;2023-04-01T17:10:49;7.70;99.90
22633;DHT22;11483;55.828;37.488;2023-04-01T17:18:49;7.70;99.90
22633;DHT22;11483;55.828;37.488;2023-04-01T17:27:16;7.70;99.90
22633;DHT22;11483;55.828;37.488;2023-04-01T17:50:00;7.70;99.90
22633;DHT22;11483;55.828;37.488;2023-04-01T17:58:21;7.70;99.90
22633;DHT22;11483;55.828;37.488;2023-04-01T18:06:41;7.60;99.90
22633;DHT22;11483;55.828;37.488;2023-04-01T18:22:59;7.60;99.90
22633;DHT22;11483;55.828;37.488;2023-04-01T18:31:07;7.50;99.90
22633;DHT22;11483;55.828;37.488;2023-04-01T18:36:51;7.50;99.90
22633;DHT22;11483;55.828;37.488;2023-04-01T18:39:38;7.50;99.90
22633;DHT22;11483;55.828;37.488;2023-04-01T18:42:28;7.40;99.90
22633;DHT22;11483;55.828;37.488;2023-04-01T18:44:59;7.50;99.90
22633;DHT22;11483;55.828;37.488;2023-04-01T18:56:06;7.40;99.90
22633;DHT22;11483;55.828;37.488;2023-04-01T19:04:23;7.40;99.90
22633;DHT22;11483;55.828;37.488;2023-04-01T19:06:57;7.40;99.90
22633;DHT22;11483;55.828;37.488;2023-04-01T19:09:27;7.40;99.90
22633;DHT22;11483;55.828;37.488;2023-04-01T19:28:29;7.40;99.90
22633;DHT22;11483;55.828;37.488;2023-04-01T19:36:31;7.30;99.90
22633;DHT22;11483;55.828;37.488;2023-04-01T19:45:07;7.40;99.90
22633;DHT22;11483;55.828;37.488;2023-04-01T19:56:02;7.50;99.90
22633;DHT22;11483;55.828;37.488;2023-04-01T19:58:40;7.50;99.90
22633;DHT22;11483;55.828;37.488;2023-04-01T20:01:14;7.50;99.90
22633;DHT22;11483;55.828;37.488;2023-04-01T20:03:58;7.50;99.90
22633;DHT22;11483;55.828;37.488;2023-04-01T20:06:44;7.50;99.90
22633;DHT22;11483;55.828;37.488;2023-04-01T20:14:57;7.50;99.90
22633;DHT22;11483;55.828;37.488;2023-04-01T20:17:44;7.50;99.90
22633;DHT22;11483;55.828;37.488;2023-04-01T20:28:04;7.50;99.90
22633;DHT22;11483;55.828;37.488;2023-04-01T20:33:42;7.50;99.90
22633;DHT22;11483;55.828;37.488;2023-04-01T20:39:32;7.50;99.90
22633;DHT22;11483;55.828;37.488;2023-04-01T20:47:56;7.50;99.90
22633;DHT22;11483;55.828;37.488;2023-04-01T20:58:57;7.60;99.90
22633;DHT22;11483;55.828;37.488;2023-04-01T21:04:23;7.50;99.90
22633;DHT22;11483;55.828;37.488;2023-04-01T21:09:55;7.60;99.90
22633;DHT22;11483;55.828;37.488;2023-04-01T21:25:42;7.60;99.90
22633;DHT22;11483;55.828;37.488;2023-04-01T21:28:34;7.60;99.90
22633;DHT22;11483;55.828;37.488;2023-04-01T21:41:53;7.70;99.90
22633;DHT22;11483;55.828;37.488;2023-04-01T21:47:50;7.70;99.90
22633;DHT22;11483;55.828;37.488;2023-04-01T21:58:20;7.70;99.90
22633;DHT22;11483;55.828;37.488;2023-04-01T22:09:42;7.70;99.90
22633;DHT22;11483;55.828;37.488;2023-04-01T22:12:15;7.70;99.90
22633;DHT22;11483;55.828;37.488;2023-04-01T22:17:32;7.80;99.90
22633;DHT22;11483;55.828;37.488;2023-04-01T22:28:24;7.90;99.90
22633;DHT22;11483;55.828;37.488;2023-04-01T22:31:00;7.80;99.90
22633;DHT22;11483;55.828;37.488;2023-04-01T22:33:34;7.80;99.90
22633;DHT22;11483;55.828;37.488;2023-04-01T22:36:47;7.80;99.90
22633;DHT22;11483;55.828;37.488;2023-04-01T22:42:44;7.90;99.90
22633;DHT22;11483;55.828;37.488;2023-04-01T22:45:39;7.80;99.90
22633;DHT22;11483;55.828;37.488;2023-04-01T22:48:18;7.90;99.90
22633;DHT22;11483;55.828;37.488;2023-04-01T22:51:10;7.90;99.90
22633;DHT22;11483;55.828;37.488;2023-04-01T22:53:54;7.90;99.90
22633;DHT22;11483;55.828;37.488;2023-04-01T22:56:44;7.90;99.90
22633;DHT22;11483;55.828;37.488;2023-04-01T23:02:16;7.90;99.90
22633;DHT22;11483;55.828;37.488;2023-04-01T23:04:47;7.90;99.90
22633;DHT22;11483;55.828;37.488;2023-04-01T23:07:36;7.80;99.90
22633;DHT22;11483;55.828;37.488;2023-04-01T23:13:14;7.80;99.90
22633;DHT22;11483;55.828;37.488;2023-04-01T23:15:42;7.80;99.90
22633;DHT22;11483;55.828;37.488;2023-04-01T23:18:34;7.80;99.90
22633;DHT22;11483;55.828;37.488;2023-04-01T23:21:18;7.80;99.90
22633;DHT22;11483;55.828;37.488;2023-04-01T23:28:56;7.60;99.90
22633;DHT22;11483;55.828;37.488;2023-04-01T23:31:29;7.60;99.90
22633;DHT22;11483;55.828;37.488;2023-04-01T23:36:44;7.50;99.90
22633;DHT22;11483;55.828;37.488;2023-04-01T23:39:32;7.50;99.90
22633;DHT22;11483;55.828;37.488;2023-04-01T23:44:48;7.50;99.90
22633;DHT22;11483;55.828;37.488;2023-04-01T23:47:38;7.50;99.90
22633;DHT22;11483;55.828;37.488;2023-04-01T23:50:31;7.50;99.90
22633;DHT22;11483;55.828;37.488;2023-04-01T23:53:02;7.50;99.90
22633;DHT22;11483;55.828;37.488;2023-04-01T23:55:32;7.50;99.90
